sensor_id;sensor_type;location;lat;lon;timestamp;pressure;altitude;pressure_sealevel;temperature;humidity
20037;BME280;10179;42.640;23.312;2023-03-18T00:00:51;94063.72;;;5.81;49.37
20037;BME280;10179;42.640;23.312;2023-03-18T00:03:17;94056.09;;;5.79;49.40
20037;BME280;10179;42.640;23.312;2023-03-18T00:05:43;94050.25;;;5.77;49.57
20037;BME280;10179;42.640;23.312;2023-03-18T00:08:08;94060.19;;;5.88;49.49
20037;BME280;10179;42.640;23.312;2023-03-18T00:10:34;94060.28;;;5.95;49.56
20037;BME280;10179;42.640;23.312;2023-03-18T00:13:01;94065.56;;;6.02;49.47
20037;BME280;10179;42.640;23.312;2023-03-18T00:15:29;94054.41;;;6.08;49.60
20037;BME280;10179;42.640;23.312;2023-03-18T00:17:54;94059.25;;;6.11;49.49
20037;BME280;10179;42.640;23.312;2023-03-18T00:20:23;94000.75;;;5.77;49.40
20037;BME280;10179;42.640;23.312;2023-03-18T00:23:02;94051.28;;;6.19;49.12
20037;BME280;10179;42.640;23.312;2023-03-18T00:25:28;94049.69;;;6.18;48.87
20037;BME280;10179;42.640;23.312;2023-03-18T00:27:53;94051.47;;;6.17;48.94
20037;BME280;10179;42.640;23.312;2023-03-18T00:30:18;94046.06;;;6.19;49.26
20037;BME280;10179;42.640;23.312;2023-03-18T00:32:44;94035.00;;;6.17;48.76
20037;BME280;10179;42.640;23.312;2023-03-18T00:35:10;94044.47;;;6.18;48.83
20037;BME280;10179;42.640;23.312;2023-03-18T00:37:36;94004.13;;;5.92;48.88
20037;BME280;10179;42.640;23.312;2023-03-18T00:40:07;94036.44;;;6.19;48.96
20037;BME280;10179;42.640;23.312;2023-03-18T00:42:38;94031.22;;;6.19;48.56
20037;BME280;10179;42.640;23.312;2023-03-18T00:45:08;94022.13;;;6.09;48.40
20037;BME280;10179;42.640;23.312;2023-03-18T00:47:37;93965.00;;;5.71;48.80
20037;BME280;10179;42.640;23.312;2023-03-18T00:50:05;94014.28;;;6.09;48.95
20037;BME280;10179;42.640;23.312;2023-03-18T00:52:32;93836.28;;;4.94;48.65
20037;BME280;10179;42.640;23.312;2023-03-18T00:54:59;94015.28;;;6.08;48.86
20037;BME280;10179;42.640;23.312;2023-03-18T00:57:25;94007.47;;;6.08;48.84
20037;BME280;10179;42.640;23.312;2023-03-18T00:59:50;93999.03;;;6.06;48.83
20037;BME280;10179;42.640;23.312;2023-03-18T01:02:16;94002.63;;;6.05;48.81
20037;BME280;10179;42.640;23.312;2023-03-18T01:04:42;93992.56;;;6.02;48.66
20037;BME280;10179;42.640;23.312;2023-03-18T01:07:08;93958.19;;;5.70;48.85
20037;BME280;10179;42.640;23.312;2023-03-18T01:09:36;94006.97;;;5.97;48.78
20037;BME280;10179;42.640;23.312;2023-03-18T01:12:03;93991.72;;;5.94;48.56
20037;BME280;10179;42.640;23.312;2023-03-18T01:14:29;94007.34;;;5.94;48.86
20037;BME280;10179;42.640;23.312;2023-03-18T01:16:55;93924.72;;;5.45;48.83
20037;BME280;10179;42.640;23.312;2023-03-18T01:19:20;93992.44;;;5.88;48.77
20037;BME280;10179;42.640;23.312;2023-03-18T01:21:46;93979.91;;;5.77;48.79
20037;BME280;10179;42.640;23.312;2023-03-18T01:24:11;93993.00;;;5.84;48.72
20037;BME280;10179;42.640;23.312;2023-03-18T01:26:37;93994.81;;;5.83;49.03
20037;BME280;10179;42.640;23.312;2023-03-18T01:29:03;93987.97;;;5.82;48.90
20037;BME280;10179;42.640;23.312;2023-03-18T01:31:28;93936.19;;;5.51;49.07
20037;BME280;10179;42.640;23.312;2023-03-18T01:33:54;93985.34;;;5.82;49.08
20037;BME280;10179;42.640;23.312;2023-03-18T01:36:20;93956.09;;;5.59;48.89
20037;BME280;10179;42.640;23.312;2023-03-18T01:38:46;93981.94;;;5.82;48.90
20037;BME280;10179;42.640;23.312;2023-03-18T01:41:13;93978.72;;;5.80;49.02
20037;BME280;10179;42.640;23.312;2023-03-18T01:43:41;93983.13;;;5.79;48.64
20037;BME280;10179;42.640;23.312;2023-03-18T01:46:45;93973.59;;;5.86;48.38
20037;BME280;10179;42.640;23.312;2023-03-18T01:49:15;93978.03;;;5.71;48.90
20037;BME280;10179;42.640;23.312;2023-03-18T01:51:45;93977.03;;;5.72;48.93
20037;BME280;10179;42.640;23.312;2023-03-18T01:54:13;93981.00;;;5.68;49.23
20037;BME280;10179;42.640;23.312;2023-03-18T01:56:40;93979.78;;;5.64;48.89
20037;BME280;10179;42.640;23.312;2023-03-18T01:59:08;93920.09;;;5.26;48.90
20037;BME280;10179;42.640;23.312;2023-03-18T02:01:43;93976.56;;;5.62;49.20
20037;BME280;10179;42.640;23.312;2023-03-18T02:04:12;93971.34;;;5.62;49.16
20037;BME280;10179;42.640;23.312;2023-03-18T02:06:39;93950.38;;;5.48;49.01
20037;BME280;10179;42.640;23.312;2023-03-18T02:09:05;93971.34;;;5.62;49.10
20037;BME280;10179;42.640;23.312;2023-03-18T02:11:33;93977.53;;;5.61;49.03
20037;BME280;10179;42.640;23.312;2023-03-18T02:14:00;93972.31;;;5.61;49.49
20037;BME280;10179;42.640;23.312;2023-03-18T02:16:40;93911.69;;;5.24;49.01
20037;BME280;10179;42.640;23.312;2023-03-18T02:22:32;93971.34;;;5.62;49.01
20037;BME280;10179;42.640;23.312;2023-03-18T02:27:32;93964.28;;;5.56;48.88
20037;BME280;10179;42.640;23.312;2023-03-18T02:30:05;93973.63;;;5.50;49.06
20037;BME280;10179;42.640;23.312;2023-03-18T02:32:33;93931.63;;;5.17;49.10
20037;BME280;10179;42.640;23.312;2023-03-18T02:35:03;93972.31;;;5.39;49.07
20037;BME280;10179;42.640;23.312;2023-03-18T02:37:29;93960.22;;;5.32;49.08
20037;BME280;10179;42.640;23.312;2023-03-18T02:40:11;93957.88;;;5.37;49.09
20037;BME280;10179;42.640;23.312;2023-03-18T02:42:36;93958.56;;;5.24;49.19
20037;BME280;10179;42.640;23.312;2023-03-18T02:45:02;93970.19;;;5.28;49.34
20037;BME280;10179;42.640;23.312;2023-03-18T02:47:28;93968.59;;;5.27;49.33
20037;BME280;10179;42.640;23.312;2023-03-18T02:49:55;93963.75;;;5.24;49.24
20037;BME280;10179;42.640;23.312;2023-03-18T02:52:21;93963.13;;;5.22;49.43
20037;BME280;10179;42.640;23.312;2023-03-18T02:54:46;93959.63;;;5.15;49.43
20037;BME280;10179;42.640;23.312;2023-03-18T02:57:12;93971.94;;;5.21;49.42
20037;BME280;10179;42.640;23.312;2023-03-18T02:59:37;93962.53;;;5.20;49.86
20037;BME280;10179;42.640;23.312;2023-03-18T03:02:02;93960.53;;;5.22;49.87
20037;BME280;10179;42.640;23.312;2023-03-18T03:04:28;93963.75;;;5.24;49.82
20037;BME280;10179;42.640;23.312;2023-03-18T03:06:55;93939.31;;;5.03;49.83
20037;BME280;10179;42.640;23.312;2023-03-18T03:09:21;93942.34;;;5.07;49.99
20037;BME280;10179;42.640;23.312;2023-03-18T03:11:47;93968.09;;;5.17;49.87
20037;BME280;10179;42.640;23.312;2023-03-18T03:14:14;93975.25;;;5.15;50.11
20037;BME280;10179;42.640;23.312;2023-03-18T03:16:40;93970.06;;;5.15;49.91
20037;BME280;10179;42.640;23.312;2023-03-18T03:19:05;93961.19;;;5.09;49.85
20037;BME280;10179;42.640;23.312;2023-03-18T03:21:32;93903.91;;;4.73;49.97
20037;BME280;10179;42.640;23.312;2023-03-18T03:24:00;93974.66;;;5.13;50.00
20037;BME280;10179;42.640;23.312;2023-03-18T03:26:27;93976.44;;;5.12;50.03
20037;BME280;10179;42.640;23.312;2023-03-18T03:28:52;93977.63;;;5.10;50.21
20037;BME280;10179;42.640;23.312;2023-03-18T03:31:18;93974.38;;;5.08;50.37
20037;BME280;10179;42.640;23.312;2023-03-18T03:33:43;93829.94;;;4.10;50.31
20037;BME280;10179;42.640;23.312;2023-03-18T03:36:16;93987.03;;;5.11;50.09
20037;BME280;10179;42.640;23.312;2023-03-18T03:38:42;93982.91;;;5.01;50.50
20037;BME280;10179;42.640;23.312;2023-03-18T03:41:09;93976.22;;;4.92;50.45
20037;BME280;10179;42.640;23.312;2023-03-18T03:43:39;93858.91;;;4.21;50.57
20037;BME280;10179;42.640;23.312;2023-03-18T03:46:06;93977.00;;;4.93;50.25
20037;BME280;10179;42.640;23.312;2023-03-18T03:48:32;93985.38;;;4.88;50.54
20037;BME280;10179;42.640;23.312;2023-03-18T03:50:58;93989.75;;;4.88;50.70
20037;BME280;10179;42.640;23.312;2023-03-18T03:53:24;93983.75;;;4.87;50.44
20037;BME280;10179;42.640;23.312;2023-03-18T03:55:50;93951.84;;;4.64;50.61
20037;BME280;10179;42.640;23.312;2023-03-18T03:58:15;93971.19;;;4.76;50.56
20037;BME280;10179;42.640;23.312;2023-03-18T04:00:41;93757.59;;;3.47;50.73
20037;BME280;10179;42.640;23.312;2023-03-18T04:03:06;93983.38;;;4.90;50.76
20037;BME280;10179;42.640;23.312;2023-03-18T04:05:32;93988.59;;;4.90;50.64
20037;BME280;10179;42.640;23.312;2023-03-18T04:07:57;93972.09;;;4.83;50.76
20037;BME280;10179;42.640;23.312;2023-03-18T04:10:26;93959.91;;;4.69;50.90
20037;BME280;10179;42.640;23.312;2023-03-18T04:12:52;93944.31;;;4.54;50.78
20037;BME280;10179;42.640;23.312;2023-03-18T04:15:19;93988.50;;;4.84;50.79
20037;BME280;10179;42.640;23.312;2023-03-18T04:17:47;94009.75;;;4.87;50.82
20037;BME280;10179;42.640;23.312;2023-03-18T04:20:13;94013.00;;;4.89;50.82
20037;BME280;10179;42.640;23.312;2023-03-18T04:22:39;94014.59;;;4.90;50.72
20037;BME280;10179;42.640;23.312;2023-03-18T04:25:07;94013.59;;;4.91;50.80
20037;BME280;10179;42.640;23.312;2023-03-18T04:27:33;94012.00;;;4.90;50.81
20037;BME280;10179;42.640;23.312;2023-03-18T04:29:59;94023.41;;;4.89;51.04
20037;BME280;10179;42.640;23.312;2023-03-18T04:32:24;94027.00;;;4.88;50.69
20037;BME280;10179;42.640;23.312;2023-03-18T04:34:50;94024.41;;;4.88;50.88
20037;BME280;10179;42.640;23.312;2023-03-18T04:37:15;94030.13;;;4.84;50.52
20037;BME280;10179;42.640;23.312;2023-03-18T04:39:48;94034.28;;;4.78;50.76
20037;BME280;10179;42.640;23.312;2023-03-18T04:42:14;94032.03;;;4.75;50.84
20037;BME280;10179;42.640;23.312;2023-03-18T04:44:40;94037.22;;;4.75;50.71
20037;BME280;10179;42.640;23.312;2023-03-18T04:47:06;94035.63;;;4.74;51.01
20037;BME280;10179;42.640;23.312;2023-03-18T04:49:32;94042.44;;;4.75;50.76
20037;BME280;10179;42.640;23.312;2023-03-18T04:51:59;94039.84;;;4.75;51.19
20037;BME280;10179;42.640;23.312;2023-03-18T04:54:24;94037.22;;;4.75;51.26
20037;BME280;10179;42.640;23.312;2023-03-18T04:56:50;93971.84;;;4.34;51.60
20037;BME280;10179;42.640;23.312;2023-03-18T04:59:15;94006.47;;;4.64;52.00
20037;BME280;10179;42.640;23.312;2023-03-18T05:01:42;94032.56;;;4.85;52.08
20037;BME280;10179;42.640;23.312;2023-03-18T05:04:07;93987.06;;;4.66;52.46
20037;BME280;10179;42.640;23.312;2023-03-18T05:06:33;94019.75;;;4.98;52.84
20037;BME280;10179;42.640;23.312;2023-03-18T05:08:59;94033.41;;;5.22;52.99
20037;BME280;10179;42.640;23.312;2023-03-18T05:11:25;94034.22;;;5.37;53.39
20037;BME280;10179;42.640;23.312;2023-03-18T05:13:51;94031.38;;;5.54;53.45
20037;BME280;10179;42.640;23.312;2023-03-18T05:16:17;94000.47;;;5.50;53.49
20037;BME280;10179;42.640;23.312;2023-03-18T05:18:43;94029.91;;;5.87;53.35
20037;BME280;10179;42.640;23.312;2023-03-18T05:21:09;94025.91;;;6.06;53.50
20037;BME280;10179;42.640;23.312;2023-03-18T05:23:35;94024.47;;;6.25;53.16
20037;BME280;10179;42.640;23.312;2023-03-18T05:26:01;94026.22;;;6.46;53.36
20037;BME280;10179;42.640;23.312;2023-03-18T05:28:27;93990.13;;;6.50;52.88
20037;BME280;10179;42.640;23.312;2023-03-18T05:30:53;94017.88;;;6.92;52.80
20037;BME280;10179;42.640;23.312;2023-03-18T05:33:19;94017.81;;;7.20;52.46
20037;BME280;10179;42.640;23.312;2023-03-18T05:35:44;94013.88;;;7.44;51.19
20037;BME280;10179;42.640;23.312;2023-03-18T05:38:10;94017.16;;;7.66;50.28
20037;BME280;10179;42.640;23.312;2023-03-18T05:40:36;94017.59;;;7.89;49.76
20037;BME280;10179;42.640;23.312;2023-03-18T05:43:01;94009.59;;;8.11;48.60
20037;BME280;10179;42.640;23.312;2023-03-18T05:45:27;93893.28;;;7.67;47.67
20037;BME280;10179;42.640;23.312;2023-03-18T05:47:53;93963.72;;;8.42;46.57
20037;BME280;10179;42.640;23.312;2023-03-18T05:50:32;94018.16;;;9.04;45.71
20037;BME280;10179;42.640;23.312;2023-03-18T05:53:00;94025.22;;;9.11;44.55
20037;BME280;10179;42.640;23.312;2023-03-18T05:55:26;93931.25;;;8.56;44.40
20037;BME280;10179;42.640;23.312;2023-03-18T05:57:53;93976.91;;;8.87;44.44
20037;BME280;10179;42.640;23.312;2023-03-18T06:00:19;93990.16;;;8.98;44.18
20037;BME280;10179;42.640;23.312;2023-03-18T06:02:44;94027.78;;;9.30;44.31
20037;BME280;10179;42.640;23.312;2023-03-18T06:05:10;94038.66;;;9.34;44.11
20037;BME280;10179;42.640;23.312;2023-03-18T06:07:36;93998.25;;;8.97;43.53
20037;BME280;10179;42.640;23.312;2023-03-18T06:10:02;94042.53;;;9.18;43.30
20037;BME280;10179;42.640;23.312;2023-03-18T06:12:27;94003.50;;;8.83;43.75
20037;BME280;10179;42.640;23.312;2023-03-18T06:14:54;94057.03;;;9.21;44.20
20037;BME280;10179;42.640;23.312;2023-03-18T06:17:20;94056.22;;;9.27;43.97
20037;BME280;10179;42.640;23.312;2023-03-18T06:19:46;94047.72;;;9.31;44.01
20037;BME280;10179;42.640;23.312;2023-03-18T06:22:13;94045.66;;;9.47;43.52
20037;BME280;10179;42.640;23.312;2023-03-18T06:24:39;94056.84;;;9.67;43.04
20037;BME280;10179;42.640;23.312;2023-03-18T06:27:05;94052.31;;;9.88;41.49
20037;BME280;10179;42.640;23.312;2023-03-18T06:29:31;94056.47;;;10.02;40.42
20037;BME280;10179;42.640;23.312;2023-03-18T06:31:56;94047.34;;;10.11;40.21
20037;BME280;10179;42.640;23.312;2023-03-18T06:34:22;94047.63;;;10.35;40.22
20037;BME280;10179;42.640;23.312;2023-03-18T06:36:47;94039.38;;;10.56;39.65
20037;BME280;10179;42.640;23.312;2023-03-18T06:39:13;94036.38;;;10.78;38.92
20037;BME280;10179;42.640;23.312;2023-03-18T06:41:38;94020.41;;;10.97;38.47
20037;BME280;10179;42.640;23.312;2023-03-18T06:44:04;94032.19;;;11.13;37.95
20037;BME280;10179;42.640;23.312;2023-03-18T06:46:30;94015.81;;;11.30;37.81
20037;BME280;10179;42.640;23.312;2023-03-18T06:48:56;94019.03;;;11.50;37.57
20037;BME280;10179;42.640;23.312;2023-03-18T06:51:21;94009.41;;;11.74;37.13
20037;BME280;10179;42.640;23.312;2023-03-18T06:53:47;93995.88;;;11.89;36.61
20037;BME280;10179;42.640;23.312;2023-03-18T06:56:12;94000.44;;;12.24;35.92
20037;BME280;10179;42.640;23.312;2023-03-18T06:58:40;94012.53;;;12.66;35.00
20037;BME280;10179;42.640;23.312;2023-03-18T07:01:06;94021.50;;;12.89;34.57
20037;BME280;10179;42.640;23.312;2023-03-18T07:03:32;94013.22;;;12.97;34.49
20037;BME280;10179;42.640;23.312;2023-03-18T07:05:58;94016.53;;;13.04;34.25
20037;BME280;10179;42.640;23.312;2023-03-18T07:08:24;94024.00;;;13.07;35.00
20037;BME280;10179;42.640;23.312;2023-03-18T07:10:52;94021.00;;;13.16;34.30
20037;BME280;10179;42.640;23.312;2023-03-18T07:13:18;94017.69;;;13.32;34.14
20037;BME280;10179;42.640;23.312;2023-03-18T07:15:43;93900.00;;;12.79;34.15
20037;BME280;10179;42.640;23.312;2023-03-18T07:18:09;94009.16;;;13.82;34.11
20037;BME280;10179;42.640;23.312;2023-03-18T07:20:36;94017.59;;;14.07;33.29
20037;BME280;10179;42.640;23.312;2023-03-18T07:23:02;94018.56;;;14.35;32.90
20037;BME280;10179;42.640;23.312;2023-03-18T07:25:28;93962.38;;;14.23;32.19
20037;BME280;10179;42.640;23.312;2023-03-18T07:27:56;94009.31;;;14.66;32.38
20037;BME280;10179;42.640;23.312;2023-03-18T07:30:21;94010.59;;;14.97;32.14
20037;BME280;10179;42.640;23.312;2023-03-18T07:32:47;94014.25;;;15.13;31.67
20037;BME280;10179;42.640;23.312;2023-03-18T07:35:14;94024.78;;;15.30;31.30
20037;BME280;10179;42.640;23.312;2023-03-18T07:37:40;94025.66;;;15.36;31.31
20037;BME280;10179;42.640;23.312;2023-03-18T07:40:07;94023.34;;;15.39;31.32
20037;BME280;10179;42.640;23.312;2023-03-18T07:42:33;94024.69;;;15.42;31.17
20037;BME280;10179;42.640;23.312;2023-03-18T07:44:58;94022.84;;;15.42;31.15
20037;BME280;10179;42.640;23.312;2023-03-18T07:47:24;93959.84;;;15.00;30.83
20037;BME280;10179;42.640;23.312;2023-03-18T07:49:49;94028.63;;;15.39;30.85
20037;BME280;10179;42.640;23.312;2023-03-18T07:52:16;94032.47;;;15.48;31.31
20037;BME280;10179;42.640;23.312;2023-03-18T07:54:42;94019.16;;;15.43;31.17
20037;BME280;10179;42.640;23.312;2023-03-18T07:57:08;94027.22;;;15.54;31.18
20037;BME280;10179;42.640;23.312;2023-03-18T07:59:34;94030.19;;;15.57;31.41
20037;BME280;10179;42.640;23.312;2023-03-18T08:02:01;94026.16;;;15.55;31.26
20037;BME280;10179;42.640;23.312;2023-03-18T08:04:27;94029.69;;;15.38;31.47
20037;BME280;10179;42.640;23.312;2023-03-18T08:06:52;94021.16;;;15.14;31.72
20037;BME280;10179;42.640;23.312;2023-03-18T08:09:19;94015.72;;;14.87;32.92
20037;BME280;10179;42.640;23.312;2023-03-18T08:11:45;94024.63;;;14.81;32.46
20037;BME280;10179;42.640;23.312;2023-03-18T08:14:11;94018.63;;;14.69;33.15
20037;BME280;10179;42.640;23.312;2023-03-18T08:16:36;93971.00;;;14.35;33.31
20037;BME280;10179;42.640;23.312;2023-03-18T08:19:03;94012.06;;;14.54;33.05
20037;BME280;10179;42.640;23.312;2023-03-18T08:21:28;94012.25;;;14.36;33.50
20037;BME280;10179;42.640;23.312;2023-03-18T08:23:54;94008.59;;;14.08;33.89
20037;BME280;10179;42.640;23.312;2023-03-18T08:26:20;93980.25;;;13.87;33.94
20037;BME280;10179;42.640;23.312;2023-03-18T08:28:46;94012.38;;;14.13;34.33
20037;BME280;10179;42.640;23.312;2023-03-18T08:31:12;94031.66;;;14.13;33.95
20037;BME280;10179;42.640;23.312;2023-03-18T08:33:38;94043.16;;;14.07;34.18
20037;BME280;10179;42.640;23.312;2023-03-18T08:36:04;94034.16;;;13.91;34.52
20037;BME280;10179;42.640;23.312;2023-03-18T08:38:30;94032.38;;;13.80;34.43
20037;BME280;10179;42.640;23.312;2023-03-18T08:40:56;94024.34;;;13.75;34.56
20037;BME280;10179;42.640;23.312;2023-03-18T08:43:22;93903.44;;;12.79;34.42
20037;BME280;10179;42.640;23.312;2023-03-18T08:45:52;94020.97;;;13.51;35.11
20037;BME280;10179;42.640;23.312;2023-03-18T08:48:18;94027.75;;;13.47;35.47
20037;BME280;10179;42.640;23.312;2023-03-18T08:50:44;94027.50;;;13.60;35.29
20037;BME280;10179;42.640;23.312;2023-03-18T08:53:11;94023.53;;;13.74;34.75
20037;BME280;10179;42.640;23.312;2023-03-18T08:55:37;94033.94;;;13.93;33.73
20037;BME280;10179;42.640;23.312;2023-03-18T08:58:04;94019.72;;;13.82;33.49
20037;BME280;10179;42.640;23.312;2023-03-18T09:00:31;94029.81;;;13.85;33.71
20037;BME280;10179;42.640;23.312;2023-03-18T09:02:57;94028.69;;;14.09;33.72
20037;BME280;10179;42.640;23.312;2023-03-18T09:05:22;94025.59;;;14.13;33.46
20037;BME280;10179;42.640;23.312;2023-03-18T09:07:49;94033.44;;;14.24;33.98
20037;BME280;10179;42.640;23.312;2023-03-18T09:10:15;93966.50;;;14.02;33.32
20037;BME280;10179;42.640;23.312;2023-03-18T09:12:43;94043.63;;;14.49;32.98
20037;BME280;10179;42.640;23.312;2023-03-18T09:15:10;94035.06;;;14.42;33.09
20037;BME280;10179;42.640;23.312;2023-03-18T09:17:37;94064.84;;;14.38;33.29
20037;BME280;10179;42.640;23.312;2023-03-18T09:20:06;93986.81;;;14.01;32.94
20037;BME280;10179;42.640;23.312;2023-03-18T09:22:33;94035.72;;;14.32;32.41
20037;BME280;10179;42.640;23.312;2023-03-18T09:24:58;94048.38;;;14.47;31.90
20037;BME280;10179;42.640;23.312;2023-03-18T09:27:24;94044.69;;;14.48;31.70
20037;BME280;10179;42.640;23.312;2023-03-18T09:29:49;94048.38;;;14.47;31.79
20037;BME280;10179;42.640;23.312;2023-03-18T09:32:16;94051.22;;;14.58;31.42
20037;BME280;10179;42.640;23.312;2023-03-18T09:34:42;93989.75;;;14.33;31.43
20037;BME280;10179;42.640;23.312;2023-03-18T09:37:09;94039.78;;;14.86;30.13
20037;BME280;10179;42.640;23.312;2023-03-18T09:39:35;94038.25;;;15.07;28.74
20037;BME280;10179;42.640;23.312;2023-03-18T09:42:34;94041.38;;;15.42;27.54
20037;BME280;10179;42.640;23.312;2023-03-18T09:53:00;94035.44;;;14.79;28.71
20037;BME280;10179;42.640;23.312;2023-03-18T09:58:23;93984.13;;;14.30;29.22
20037;BME280;10179;42.640;23.312;2023-03-18T10:00:56;94000.63;;;14.20;29.04
20037;BME280;10179;42.640;23.312;2023-03-18T10:06:20;94044.78;;;14.08;30.28
20037;BME280;10179;42.640;23.312;2023-03-18T10:11:43;94055.63;;;14.23;30.09
20037;BME280;10179;42.640;23.312;2023-03-18T10:16:54;94048.75;;;13.94;29.17
20037;BME280;10179;42.640;23.312;2023-03-18T10:19:23;94044.78;;;14.08;29.36
20037;BME280;10179;42.640;23.312;2023-03-18T10:24:40;94048.31;;;13.85;29.02
20037;BME280;10179;42.640;23.312;2023-03-18T10:27:17;94048.56;;;13.72;28.08
20037;BME280;10179;42.640;23.312;2023-03-18T10:32:50;93972.97;;;13.25;29.08
20037;BME280;10179;42.640;23.312;2023-03-18T10:35:53;94046.31;;;13.64;28.25
20037;BME280;10179;42.640;23.312;2023-03-18T10:40:56;94040.72;;;13.36;27.16
20037;BME280;10179;42.640;23.312;2023-03-18T10:43:26;94039.84;;;13.31;27.72
20037;BME280;10179;42.640;23.312;2023-03-18T10:46:03;94047.84;;;13.36;28.32
20037;BME280;10179;42.640;23.312;2023-03-18T10:48:33;94044.50;;;13.41;27.37
20037;BME280;10179;42.640;23.312;2023-03-18T10:51:33;94035.16;;;13.61;27.68
20037;BME280;10179;42.640;23.312;2023-03-18T10:56:40;94028.69;;;13.81;28.05
20037;BME280;10179;42.640;23.312;2023-03-18T10:59:14;94022.91;;;13.96;27.32
20037;BME280;10179;42.640;23.312;2023-03-18T11:01:42;94021.34;;;13.83;26.90
20037;BME280;10179;42.640;23.312;2023-03-18T11:04:15;94012.41;;;13.72;27.73
20037;BME280;10179;42.640;23.312;2023-03-18T11:06:46;93940.88;;;13.17;27.53
20037;BME280;10179;42.640;23.312;2023-03-18T11:09:17;94006.66;;;13.75;26.67
20037;BME280;10179;42.640;23.312;2023-03-18T11:11:48;94021.84;;;13.97;26.84
20037;BME280;10179;42.640;23.312;2023-03-18T11:14:18;94029.75;;;14.08;26.42
20037;BME280;10179;42.640;23.312;2023-03-18T11:16:48;94022.00;;;13.90;26.58
20037;BME280;10179;42.640;23.312;2023-03-18T11:19:30;94021.28;;;13.66;26.69
20037;BME280;10179;42.640;23.312;2023-03-18T11:24:35;94030.19;;;13.01;27.75
20037;BME280;10179;42.640;23.312;2023-03-18T11:29:49;94022.41;;;12.71;29.75
20037;BME280;10179;42.640;23.312;2023-03-18T11:32:29;94018.69;;;12.49;29.93
20037;BME280;10179;42.640;23.312;2023-03-18T11:35:06;94024.84;;;12.31;29.90
20037;BME280;10179;42.640;23.312;2023-03-18T11:40:15;94025.00;;;12.48;30.20
20037;BME280;10179;42.640;23.312;2023-03-18T11:42:44;93956.81;;;12.28;29.67
20037;BME280;10179;42.640;23.312;2023-03-18T11:47:53;94000.91;;;13.50;28.49
20037;BME280;10179;42.640;23.312;2023-03-18T11:50:21;94009.94;;;13.66;27.37
20037;BME280;10179;42.640;23.312;2023-03-18T11:53:01;94006.25;;;13.67;27.22
20037;BME280;10179;42.640;23.312;2023-03-18T11:55:38;94017.97;;;13.59;27.40
20037;BME280;10179;42.640;23.312;2023-03-18T12:06:24;94017.59;;;12.68;28.41
20037;BME280;10179;42.640;23.312;2023-03-18T12:09:05;94008.19;;;12.60;28.13
20037;BME280;10179;42.640;23.312;2023-03-18T12:11:57;94017.78;;;12.66;28.64
20037;BME280;10179;42.640;23.312;2023-03-18T12:14:40;94030.41;;;12.64;28.98
20037;BME280;10179;42.640;23.312;2023-03-18T12:27:50;94015.41;;;12.11;30.61
20037;BME280;10179;42.640;23.312;2023-03-18T12:31:02;94016.25;;;12.24;30.94
20037;BME280;10179;42.640;23.312;2023-03-18T12:33:50;94013.16;;;12.27;30.43
20037;BME280;10179;42.640;23.312;2023-03-18T12:50:17;94006.94;;;12.09;29.92
20037;BME280;10179;42.640;23.312;2023-03-18T12:52:52;94013.69;;;12.05;30.19
20037;BME280;10179;42.640;23.312;2023-03-18T13:00:30;94003.16;;;12.05;30.07
20037;BME280;10179;42.640;23.312;2023-03-18T13:05:47;94014.72;;;12.04;30.02
20037;BME280;10179;42.640;23.312;2023-03-18T13:11:27;94006.59;;;12.06;29.80
20037;BME280;10179;42.640;23.312;2023-03-18T13:14:01;94012.28;;;12.03;29.72
20037;BME280;10179;42.640;23.312;2023-03-18T13:16:30;94030.03;;;12.07;29.72
20037;BME280;10179;42.640;23.312;2023-03-18T13:18:58;93950.34;;;11.88;29.62
20037;BME280;10179;42.640;23.312;2023-03-18T13:21:27;93992.69;;;12.29;29.65
20037;BME280;10179;42.640;23.312;2023-03-18T13:32:19;94010.00;;;12.48;28.31
20037;BME280;10179;42.640;23.312;2023-03-18T13:35:27;93999.81;;;12.52;28.21
20037;BME280;10179;42.640;23.312;2023-03-18T13:38:05;94004.63;;;12.43;28.38
20037;BME280;10179;42.640;23.312;2023-03-18T13:43:13;94004.72;;;12.48;28.43
20037;BME280;10179;42.640;23.312;2023-03-18T13:45:41;94001.41;;;12.53;28.14
20037;BME280;10179;42.640;23.312;2023-03-18T13:48:12;93996.03;;;12.59;28.09
20037;BME280;10179;42.640;23.312;2023-03-18T13:50:42;93988.25;;;12.64;27.94
20037;BME280;10179;42.640;23.312;2023-03-18T13:53:31;93997.41;;;12.74;28.08
20037;BME280;10179;42.640;23.312;2023-03-18T13:58:25;93986.28;;;12.48;27.86
20037;BME280;10179;42.640;23.312;2023-03-18T14:06:20;93990.28;;;12.62;27.83
20037;BME280;10179;42.640;23.312;2023-03-18T14:08:48;93978.28;;;12.43;28.12
20037;BME280;10179;42.640;23.312;2023-03-18T14:14:03;93878.13;;;11.54;27.39
20037;BME280;10179;42.640;23.312;2023-03-18T14:19:22;93981.69;;;12.55;27.41
20037;BME280;10179;42.640;23.312;2023-03-18T14:24:44;93979.06;;;12.55;27.42
20037;BME280;10179;42.640;23.312;2023-03-18T14:27:20;93981.25;;;12.70;27.33
20037;BME280;10179;42.640;23.312;2023-03-18T14:29:46;93975.63;;;12.66;27.20
20037;BME280;10179;42.640;23.312;2023-03-18T14:37:28;93989.16;;;12.82;26.89
20037;BME280;10179;42.640;23.312;2023-03-18T14:40:11;93994.44;;;12.82;26.72
20037;BME280;10179;42.640;23.312;2023-03-18T14:42:51;93940.13;;;12.46;26.45
20037;BME280;10179;42.640;23.312;2023-03-18T14:45:31;93984.72;;;12.71;26.17
20037;BME280;10179;42.640;23.312;2023-03-18T14:47:58;93978.16;;;12.61;26.08
20037;BME280;10179;42.640;23.312;2023-03-18T14:50:34;93993.63;;;12.70;26.15
20037;BME280;10179;42.640;23.312;2023-03-18T14:55:43;93991.19;;;12.56;26.36
20037;BME280;10179;42.640;23.312;2023-03-18T14:58:19;93990.75;;;12.59;26.59
20037;BME280;10179;42.640;23.312;2023-03-18T15:00:48;93997.75;;;12.54;26.39
20037;BME280;10179;42.640;23.312;2023-03-18T15:03:20;94000.94;;;12.56;26.55
20037;BME280;10179;42.640;23.312;2023-03-18T15:05:47;93944.78;;;12.20;26.68
20037;BME280;10179;42.640;23.312;2023-03-18T15:08:21;93984.56;;;12.65;26.54